Terminal Aerodrome Forecast
Issued by NWS Atlanta, GA

Home | Current Version | Previous Version | Text Only | Print | Product List | Glossary On
Versions: 1 2 3 4 5 6 7 8 9 10 11 12 13 14 15 16 17 18 19 20 21 22 23 24 25 26 27 28 29 30 31 32 33 34 35 36
625
FTAK31 PAJN 040402 AAA
TAFAHN
TAF AMD
PAHN 040402Z 0404/0424 29015KT P6SM VCSH FEW010 SCT025 SCT040
      TEMPO 0404/0408 30015G25KT 6SM -SHSN FEW006 SCT010 OVC025
     FM041200 07010KT P6SM VCSH SCT020 BKN040 BKN060
     FM041800 07010KT P6SM SKC WS020/36030KT
      AMD LTD TO CLD VIS AND WIND=

USA.gov is the U.S. government's official web portal to all federal, state and local government web resources and services.